Time;durP1;ratioP1;P1;durP2;ratioP2;P2;SDS_P1;SDS_P2;PMS_P1;PMS_P2;Temp;Humidity;BMP_temperature;BMP_pressure;BME280_temperature;BME280_humidity;BME280_pressure;Samples;Min_cycle;Max_cycle;Signal;HPM_P1;HPM_P2
2023/09/24 00:00:10;;;;;;;26.02;17.02;;;;;;;10.54;100.00;102293.34;5069978;28;20043;-35
2023/09/24 00:02:36;;;;;;;26.13;16.77;;;;;;;10.54;100.00;102293.34;5070269;28;20124;-35
2023/09/24 00:05:01;;;;;;;29.50;19.13;;;;;;;10.55;100.00;102298.59;5069326;28;20021;-35
2023/09/24 00:07:27;;;;;;;21.27;14.13;;;;;;;10.50;100.00;102305.63;5069651;28;20029;-35
2023/09/24 00:09:52;;;;;;;35.97;24.17;;;;;;;10.54;100.00;102299.63;5059093;28;20056;-35
2023/09/24 00:12:17;;;;;;;20.47;14.40;;;;;;;10.46;100.00;102305.16;5056138;28;20255;-35
2023/09/24 00:14:43;;;;;;;16.67;13.90;;;;;;;10.47;100.00;102309.53;5056530;28;20040;-35
2023/09/24 00:17:08;;;;;;;13.23;7.33;;;;;;;10.31;100.00;102299.00;5055982;28;20090;-35
2023/09/24 00:19:34;;;;;;;19.52;12.82;;;;;;;10.41;100.00;102315.72;5056204;28;20033;-35
2023/09/24 00:22:00;;;;;;;7.63;5.88;;;;;;;10.30;100.00;102310.84;5056156;28;20111;-35
2023/09/24 00:24:26;;;;;;;17.63;12.35;;;;;;;10.36;100.00;102315.47;5055741;28;20021;-35
2023/09/24 00:26:51;;;;;;;29.77;20.83;;;;;;;10.44;100.00;102314.47;5055825;28;20032;-35
2023/09/24 00:29:16;;;;;;;22.40;15.30;;;;;;;10.28;100.00;102293.97;5056049;28;20047;-35
2023/09/24 00:31:42;;;;;;;17.88;12.50;;;;;;;10.35;100.00;102310.25;5055994;28;20021;-35
2023/09/24 00:34:08;;;;;;;9.40;7.10;;;;;;;10.24;100.00;102308.88;5055944;28;20021;-35
2023/09/24 00:36:33;;;;;;;11.00;6.75;;;;;;;10.18;100.00;102305.06;5056075;28;20281;-35
2023/09/24 00:39:01;;;;;;;14.48;9.15;;;;;;;10.30;100.00;102310.84;5056710;28;20025;-35
2023/09/24 00:41:26;;;;;;;12.60;7.88;;;;;;;10.13;100.00;102306.66;5054824;28;20452;-35
2023/09/24 00:43:52;;;;;;;20.00;12.88;;;;;;;10.23;100.00;102324.25;5055092;28;20029;-35
2023/09/24 00:46:21;;;;;;;11.70;7.77;;;;;;;10.20;100.00;102318.38;5055704;28;20484;-35
2023/09/24 00:48:47;;;;;;;12.90;9.13;;;;;;;10.13;100.00;102317.47;5055936;28;20267;-35
2023/09/24 00:51:18;;;;;;;21.23;14.93;;;;;;;10.20;100.00;102334.59;5055550;28;20027;-35
2023/09/24 00:53:45;;;;;;;13.55;9.32;;;;;;;10.12;100.00;102332.03;5056336;28;20025;-35
2023/09/24 00:56:11;;;;;;;14.60;10.35;;;;;;;10.18;100.00;102333.97;5055436;28;20373;-35
2023/09/24 00:58:37;;;;;;;18.85;12.02;;;;;;;10.21;100.00;102336.28;5055927;28;20075;-35
2023/09/24 01:01:09;;;;;;;22.73;14.30;;;;;;;10.23;100.00;102336.94;5055411;28;20024;-35
2023/09/24 01:03:38;;;;;;;14.43;9.80;;;;;;;10.14;100.00;102329.97;5055844;28;20454;-35
2023/09/24 01:06:06;;;;;;;16.20;9.95;;;;;;;10.09;100.00;102332.41;5055196;28;20016;-35
2023/09/24 01:08:32;;;;;;;22.35;14.07;;;;;;;10.16;100.00;102320.66;5055525;28;20024;-35
2023/09/24 01:10:59;;;;;;;12.70;9.48;;;;;;;10.04;100.00;102328.41;5054871;28;20032;-35
2023/09/24 01:13:24;;;;;;;13.70;9.75;;;;;;;10.05;100.00;102326.53;5054872;28;20017;-35
2023/09/24 01:15:50;;;;;;;15.50;11.13;;;;;;;10.09;100.00;102327.00;5054842;28;20028;-35
2023/09/24 01:18:16;;;;;;;;;;;;;;;10.20;100.00;102330.06;5055706;28;20521;-35
2023/09/24 01:20:43;;;;;;;20.20;13.18;;;;;;;10.10;100.00;102320.56;5053719;28;19978;-35
2023/09/24 01:23:09;;;;;;;8.57;6.15;;;;;;;9.93;100.00;102318.09;5055248;28;20036;-35
2023/09/24 01:25:37;;;;;;;15.25;10.32;;;;;;;10.03;100.00;102324.03;5054899;28;20112;-35
2023/09/24 01:28:04;;;;;;;11.90;8.93;;;;;;;9.96;100.00;102323.13;5054897;28;20101;-35
2023/09/24 01:30:33;;;;;;;13.63;7.78;;;;;;;9.91;100.00;102327.44;5054493;28;20102;-35
2023/09/24 01:33:00;;;;;;;13.43;6.85;;;;;;;9.86;100.00;102325.31;5055312;28;20025;-35
2023/09/24 01:35:27;;;;;;;;;;;;;;;10.00;100.00;102326.28;5055216;28;20024;-35
2023/09/24 01:38:04;;;;;;;14.15;9.20;;;;;;;9.88;100.00;102331.34;5054670;28;19909;-35
2023/09/24 01:40:35;;;;;;;15.88;11.32;;;;;;;9.91;100.00;102325.56;5054994;28;20029;-35
2023/09/24 01:43:02;;;;;;;10.23;5.15;;;;;;;9.71;100.00;102321.78;5054301;28;20029;-35
2023/09/24 01:45:28;;;;;;;23.15;14.65;;;;;;;9.82;100.00;102310.50;5055285;28;20031;-35
2023/09/24 01:47:55;;;;;;;6.10;4.50;;;;;;;9.55;100.00;102304.75;5055064;28;20060;-35
2023/09/24 01:50:27;;;;;;;10.93;5.30;;;;;;;9.55;100.00;102323.66;5054446;28;20079;-35
2023/09/24 01:52:53;;;;;;;10.90;7.72;;;;;;;9.62;100.00;102331.03;5054725;28;20139;-35
2023/09/24 01:55:19;;;;;;;8.85;5.90;;;;;;;9.61;100.00;102322.06;5054270;28;20021;-35
2023/09/24 01:57:45;;;;;;;13.05;9.48;;;;;;;9.72;100.00;102321.63;5055132;28;20036;-35
2023/09/24 02:00:12;;;;;;;9.48;6.70;;;;;;;9.71;100.00;102321.78;5054499;28;20063;-35
2023/09/24 02:02:38;;;;;;;9.50;6.43;;;;;;;9.68;100.00;102327.56;5054214;28;20032;-35
2023/09/24 02:05:07;;;;;;;14.73;9.55;;;;;;;9.73;100.00;102317.03;5053876;28;20595;-35
2023/09/24 02:07:33;;;;;;;9.25;5.82;;;;;;;9.65;100.00;102325.25;5054961;28;20028;-35
2023/09/24 02:09:58;;;;;;;10.97;6.70;;;;;;;9.58;100.00;102322.47;5054438;28;20055;-35
2023/09/24 02:12:26;;;;;;;8.27;5.10;;;;;;;9.55;100.00;102320.13;5054050;28;20072;-35
2023/09/24 02:14:52;;;;;;;10.35;5.93;;;;;;;9.58;100.00;102314.38;5054215;28;20365;-35
2023/09/24 02:17:18;;;;;;;8.25;6.03;;;;;;;9.60;100.00;102324.97;5054447;28;20055;-35
2023/09/24 02:19:44;;;;;;;15.30;9.90;;;;;;;9.65;100.00;102333.34;5053887;28;20025;-35
2023/09/24 02:22:10;;;;;;;12.57;7.13;;;;;;;9.62;100.00;102337.28;5053995;28;20020;-35
2023/09/24 02:24:36;;;;;;;9.52;6.28;;;;;;;9.50;100.00;102322.56;5053556;28;20100;-35
2023/09/24 02:27:02;;;;;;;12.73;8.77;;;;;;;9.58;100.00;102332.44;5054354;28;20028;-35
2023/09/24 02:29:29;;;;;;;9.48;7.40;;;;;;;9.59;100.00;102343.03;5054281;28;20029;-35
2023/09/24 02:31:54;;;;;;;9.93;6.37;;;;;;;9.60;100.00;102350.13;5053254;28;20021;-35
2023/09/24 02:34:19;;;;;;;12.53;9.33;;;;;;;9.65;100.00;102349.56;5053746;28;20279;-35
2023/09/24 02:36:45;;;;;;;6.77;5.37;;;;;;;9.51;100.00;102346.66;5053976;28;20067;-35
2023/09/24 02:39:10;;;;;;;6.80;5.63;;;;;;;9.51;100.00;102340.44;5053621;28;20108;-35
2023/09/24 02:41:36;;;;;;;11.07;8.10;;;;;;;9.54;100.00;102330.09;5053931;28;20476;-35
2023/09/24 02:44:02;;;;;;;11.30;8.37;;;;;;;9.65;100.00;102352.25;5053660;28;20074;-35
2023/09/24 02:46:27;;;;;;;7.05;5.18;;;;;;;9.50;100.00;102347.69;5054412;28;20028;-35
2023/09/24 02:48:52;;;;;;;6.18;4.38;;;;;;;9.32;100.00;102332.91;5054082;28;20025;-35
2023/09/24 02:51:19;;;;;;;6.67;4.40;;;;;;;9.40;100.00;102349.00;5053519;28;20025;-35
2023/09/24 02:53:46;;;;;;;;;;;;;;;9.48;100.00;102347.06;5053689;28;20024;-35
2023/09/24 02:56:13;;;;;;;9.13;5.43;;;;;;;9.26;100.00;102326.38;5053106;28;19995;-36
2023/09/24 02:58:39;;;;;;;8.27;5.72;;;;;;;9.38;100.00;102345.69;5053754;28;20040;-36
2023/09/24 03:01:14;;;;;;;6.63;4.78;;;;;;;9.28;100.00;102349.50;5053390;28;20091;-36
2023/09/24 03:03:40;;;;;;;5.70;4.43;;;;;;;9.24;100.00;102350.88;5053110;28;20473;-36
2023/09/24 03:06:05;;;;;;;8.67;5.87;;;;;;;9.35;100.00;102352.28;5053457;28;20036;-36
2023/09/24 03:08:32;;;;;;;7.73;4.93;;;;;;;9.36;100.00;102353.09;5053138;28;20469;-37
2023/09/24 03:10:57;;;;;;;9.20;6.53;;;;;;;9.38;100.00;102351.91;5053316;28;20056;-36
2023/09/24 03:13:22;;;;;;;10.95;5.82;;;;;;;9.36;100.00;102356.63;5053922;28;20052;-36
2023/09/24 03:15:48;;;;;;;9.87;7.03;;;;;;;9.44;100.00;102356.56;5053331;28;20049;-36
2023/09/24 03:18:13;;;;;;;8.73;5.68;;;;;;;9.34;100.00;102361.41;5054074;28;20060;-36
2023/09/24 03:20:39;;;;;;;8.15;5.22;;;;;;;9.29;100.00;102361.13;5053323;28;20021;-36
2023/09/24 03:23:09;;;;;;;8.85;6.00;;;;;;;9.31;100.00;102359.06;5053560;28;20029;-36
2023/09/24 03:25:35;;;;;;;7.13;5.13;;;;;;;9.17;100.00;102343.69;5052937;28;20036;-36
2023/09/24 03:28:01;;;;;;;7.97;6.15;;;;;;;9.41;100.00;102365.03;5052890;28;20028;-36
2023/09/24 03:30:27;;;;;;;10.50;7.30;;;;;;;9.39;100.00;102361.69;5053126;28;20025;-36
2023/09/24 03:32:53;;;;;;;8.00;5.90;;;;;;;9.32;100.00;102366.16;5052895;28;20021;-36
2023/09/24 03:35:25;;;;;;;;;;;;;;;9.44;100.00;102371.91;5054358;28;20024;-36
2023/09/24 03:37:52;;;;;;;9.55;6.38;;;;;;;9.45;100.00;102366.31;5053603;28;19908;-36
2023/09/24 03:40:20;;;;;;;8.25;6.00;;;;;;;9.37;100.00;102374.53;5053635;28;20021;-36
2023/09/24 03:42:49;;;;;;;6.75;5.72;;;;;;;9.34;100.00;102374.91;5053598;28;20021;-36
2023/09/24 03:45:16;;;;;;;8.65;5.28;;;;;;;9.29;100.00;102372.75;5055620;28;20380;-36
2023/09/24 03:47:42;;;;;;;7.22;4.82;;;;;;;9.15;100.00;102384.38;5056632;28;20484;-36
2023/09/24 03:50:13;;;;;;;6.38;4.47;;;;;;;9.19;100.00;102384.84;5056803;28;20021;-36
2023/09/24 03:52:39;;;;;;;6.88;4.70;;;;;;;9.19;100.00;102384.84;5057587;28;20029;-36
2023/09/24 03:55:05;;;;;;;8.23;5.70;;;;;;;9.28;100.00;102383.75;5056334;28;20021;-36
2023/09/24 03:57:30;;;;;;;7.43;5.80;;;;;;;9.24;100.00;102382.44;5057014;28;20364;-36
2023/09/24 03:59:59;;;;;;;4.75;4.25;;;;;;;9.11;100.00;102387.63;5056630;28;20033;-36
2023/09/24 04:02:26;;;;;;;8.25;5.78;;;;;;;9.25;100.00;102386.81;5057086;28;20059;-36
2023/09/24 04:04:52;;;;;;;6.93;5.68;;;;;;;9.26;100.00;102381.22;5056485;28;20032;-36
2023/09/24 04:07:19;;;;;;;9.70;5.40;;;;;;;9.31;100.00;102390.63;5057066;28;20103;-37
2023/09/24 04:09:44;;;;;;;6.55;4.80;;;;;;;9.29;100.00;102391.66;5056404;28;20037;-36
2023/09/24 04:12:11;;;;;;;7.45;5.32;;;;;;;9.30;100.00;102395.19;5056636;28;20445;-36
2023/09/24 04:14:36;;;;;;;8.85;5.53;;;;;;;9.31;100.00;102396.03;5056582;28;20044;-36
2023/09/24 04:17:03;;;;;;;9.68;5.82;;;;;;;9.31;100.00;102390.63;5057041;28;20048;-36
2023/09/24 04:19:30;;;;;;;7.75;5.25;;;;;;;9.27;100.00;102393.72;5057012;28;20025;-36
2023/09/24 04:21:55;;;;;;;8.43;5.20;;;;;;;9.29;100.00;102396.22;5056188;28;20021;-36
2023/09/24 04:24:21;;;;;;;7.47;4.80;;;;;;;9.11;100.00;102401.94;5056199;28;20020;-36
2023/09/24 04:26:46;;;;;;;6.72;4.88;;;;;;;9.23;100.00;102402.34;5056733;28;20029;-36
2023/09/24 04:29:12;;;;;;;9.00;6.00;;;;;;;9.32;100.00;102398.56;5055738;28;20428;-36
2023/09/24 04:31:38;;;;;;;7.60;5.68;;;;;;;9.24;100.00;102398.63;5056038;28;20515;-36
2023/09/24 04:34:03;;;;;;;7.78;4.95;;;;;;;9.08;100.00;102409.56;5055936;28;20071;-36
2023/09/24 04:36:29;;;;;;;5.53;3.83;;;;;;;9.00;100.00;102411.31;5055918;28;20075;-36
2023/09/24 04:38:54;;;;;;;6.90;4.72;;;;;;;9.07;100.00;102407.91;5056068;28;20079;-36
2023/09/24 04:41:20;;;;;;;8.60;4.82;;;;;;;9.10;100.00;102400.28;5055483;28;20017;-36
2023/09/24 04:43:47;;;;;;;5.53;4.47;;;;;;;9.15;100.00;102397.03;5055785;28;20044;-36
2023/09/24 04:46:13;;;;;;;7.30;4.57;;;;;;;8.98;100.00;102404.47;5055662;28;20464;-36
2023/09/24 04:48:38;;;;;;;5.28;4.28;;;;;;;9.09;100.00;102406.69;5055705;28;20032;-36
2023/09/24 04:51:03;;;;;;;7.10;3.97;;;;;;;8.93;100.00;102387.94;5055890;28;20017;-36
2023/09/24 04:53:30;;;;;;;7.15;4.78;;;;;;;9.09;100.00;102405.88;5055636;28;20037;-36
2023/09/24 04:55:56;;;;;;;6.80;4.43;;;;;;;9.08;100.00;102401.47;5055395;28;20056;-36
2023/09/24 04:58:22;;;;;;;9.40;4.40;;;;;;;9.12;100.00;102410.88;5055937;28;20040;-36
2023/09/24 05:00:47;;;;;;;5.03;3.67;;;;;;;9.08;100.00;102409.56;5055694;28;20017;-36
2023/09/24 05:03:13;;;;;;;7.15;4.03;;;;;;;9.09;100.00;102404.00;5055756;28;20027;-36
2023/09/24 05:05:42;;;;;;;7.15;4.03;;;;;;;9.07;100.00;102407.91;5055101;28;20458;-36
2023/09/24 05:08:11;;;;;;;5.20;3.80;;;;;;;8.97;100.00;102411.69;5056220;28;20024;-36
2023/09/24 05:10:40;;;;;;;5.78;3.88;;;;;;;9.03;100.00;102404.75;5055044;28;20013;-37
2023/09/24 05:13:05;;;;;;;4.18;3.72;;;;;;;9.11;100.00;102417.31;5055778;28;20032;-36
2023/09/24 05:15:30;;;;;;;5.50;3.92;;;;;;;8.96;100.00;102401.91;5055155;28;20445;-36
2023/09/24 05:17:56;;;;;;;7.37;4.07;;;;;;;9.16;100.00;102423.00;5055136;28;20112;-36
2023/09/24 05:20:22;;;;;;;5.72;3.97;;;;;;;9.20;100.00;102421.59;5055368;28;20021;-36
2023/09/24 05:22:47;;;;;;;6.97;3.67;;;;;;;9.15;100.00;102421.31;5055401;28;20059;-36
2023/09/24 05:25:13;;;;;;;5.82;4.15;;;;;;;9.09;100.00;102428.28;5055265;28;20090;-36
2023/09/24 05:27:38;;;;;;;5.60;3.58;;;;;;;8.94;100.00;102414.75;5055636;28;20037;-36
2023/09/24 05:30:05;;;;;;;6.85;3.63;;;;;;;9.05;100.00;102436.94;5055695;28;20082;-36
2023/09/24 05:32:33;;;;;;;5.72;3.67;;;;;;;8.98;100.00;102434.97;5054594;28;20020;-36
2023/09/24 05:34:59;;;;;;;5.40;3.53;;;;;;;8.99;100.00;102444.75;5054747;28;20025;-36
2023/09/24 05:37:24;;;;;;;5.20;3.45;;;;;;;8.97;100.00;102451.31;5055286;28;20461;-36
2023/09/24 05:39:49;;;;;;;6.35;3.80;;;;;;;9.03;100.00;102450.63;5054458;28;20481;-36
2023/09/24 05:42:16;;;;;;;5.37;3.83;;;;;;;8.97;100.00;102452.16;5055028;28;20071;-36
2023/09/24 05:44:42;;;;;;;5.03;3.60;;;;;;;8.97;100.00;102451.31;5054787;28;20029;-36
2023/09/24 05:47:08;;;;;;;6.45;3.30;;;;;;;9.09;100.00;102457.16;5054604;28;20063;-36
2023/09/24 05:49:33;;;;;;;6.25;3.75;;;;;;;9.05;100.00;102462.06;5054760;28;20029;-36
2023/09/24 05:51:59;;;;;;;7.30;3.43;;;;;;;9.03;100.00;102462.25;5054299;28;20384;-36
2023/09/24 05:54:24;;;;;;;4.30;3.17;;;;;;;8.95;100.00;102461.47;5054091;28;20346;-36
2023/09/24 05:56:49;;;;;;;4.33;3.10;;;;;;;9.09;100.00;102452.56;5054228;28;20040;-36
2023/09/24 05:59:15;;;;;;;4.90;3.57;;;;;;;9.07;100.00;102459.16;5054615;28;20025;-36
2023/09/24 06:01:42;;;;;;;7.23;3.47;;;;;;;9.18;100.00;102466.84;5054603;28;20017;-36
2023/09/24 06:04:07;;;;;;;6.90;3.70;;;;;;;9.19;100.00;102468.53;5054183;28;20267;-36
2023/09/24 06:06:33;;;;;;;7.37;3.87;;;;;;;9.23;100.00;102472.53;5054151;28;20051;-36
2023/09/24 06:08:58;;;;;;;5.68;3.67;;;;;;;9.23;100.00;102472.53;5054221;28;20413;-36
2023/09/24 06:11:23;;;;;;;7.30;3.60;;;;;;;9.26;100.00;102470.28;5053912;28;20397;-36
2023/09/24 06:13:49;;;;;;;5.30;2.87;;;;;;;9.35;100.00;102464.81;5053875;28;20020;-36
2023/09/24 06:16:14;;;;;;;4.80;3.23;;;;;;;9.31;100.00;102464.34;5054019;28;20122;-36
2023/09/24 06:18:40;;;;;;;6.33;3.80;;;;;;;9.29;100.00;102463.69;5053704;28;20627;-36
2023/09/24 06:21:05;;;;;;;5.00;3.17;;;;;;;9.46;100.00;102472.47;5053906;28;20024;-36
2023/09/24 06:23:31;;;;;;;9.17;3.67;;;;;;;9.37;100.00;102479.84;5053977;28;20368;-36
2023/09/24 06:25:57;;;;;;;5.80;3.85;;;;;;;9.52;100.00;102478.00;5053288;28;20029;-36
2023/09/24 06:28:26;;;;;;;5.63;3.88;;;;;;;9.55;100.00;102476.78;5053505;28;20473;-36
2023/09/24 06:31:03;;;;;;;7.70;4.15;;;;;;;9.66;100.00;102476.34;5053481;28;20021;-36
2023/09/24 06:33:29;;;;;;;3.78;3.38;;;;;;;9.56;100.00;102483.84;5054022;28;20032;-36
2023/09/24 06:35:55;;;;;;;6.18;3.88;;;;;;;9.60;100.00;102487.84;5053488;28;20060;-36
2023/09/24 06:38:20;;;;;;;4.75;3.42;;;;;;;9.51;100.00;102480.84;5053396;28;20053;-36
2023/09/24 06:40:46;;;;;;;8.57;3.42;;;;;;;9.66;100.00;102489.84;5053935;28;20421;-36
2023/09/24 06:43:11;;;;;;;6.78;3.28;;;;;;;9.64;100.00;102491.03;5053923;28;20104;-36
2023/09/24 06:45:36;;;;;;;7.33;4.10;;;;;;;9.70;100.00;102496.53;5054092;28;20029;-36
2023/09/24 06:48:03;;;;;;;7.67;3.60;;;;;;;9.72;100.00;102483.69;5053026;28;20597;-36
2023/09/24 06:50:28;;;;;;;;;;;;;;;9.83;100.00;102489.66;5053633;28;20029;-36
2023/09/24 06:52:53;;;;;;;6.65;3.30;;;;;;;9.69;100.00;102478.66;5052924;28;19951;-36
2023/09/24 06:55:19;;;;;;;6.53;3.33;;;;;;;9.83;100.00;102486.97;5053891;28;20021;-36
2023/09/24 06:57:44;;;;;;;4.83;3.23;;;;;;;10.00;100.00;102492.00;5053586;28;20106;-36
2023/09/24 07:00:10;;;;;;;6.85;3.80;;;;;;;10.02;100.00;102500.75;5053473;28;20267;-36
2023/09/24 07:02:36;;;;;;;5.70;3.38;;;;;;;10.09;100.00;102508.09;5054045;28;20028;-36
2023/09/24 07:05:01;;;;;;;4.25;2.97;;;;;;;9.97;100.00;102492.34;5053214;28;20032;-36
2023/09/24 07:07:27;;;;;;;6.78;3.53;;;;;;;10.03;100.00;102494.31;5053143;28;20029;-36
2023/09/24 07:09:53;;;;;;;5.43;3.72;;;;;;;10.20;100.00;102496.81;5053050;28;20120;-36
2023/09/24 07:12:18;;;;;;;5.93;3.60;;;;;;;10.28;100.00;102499.44;5054240;28;20135;-36
2023/09/24 07:14:44;;;;;;;5.78;4.03;;;;;;;10.29;100.00;102506.53;5053365;28;20504;-36
2023/09/24 07:17:09;;;;;;;6.70;4.45;;;;;;;10.35;100.00;102505.78;5053013;28;20035;-36
2023/09/24 07:19:35;;;;;;;7.53;3.93;;;;;;;10.43;100.00;102508.38;5055216;28;20079;-36
2023/09/24 07:22:01;;;;;;;5.47;3.95;;;;;;;10.59;100.00;102501.91;5057021;28;20021;-36
2023/09/24 07:24:26;;;;;;;6.55;4.68;;;;;;;10.64;100.00;102509.44;5057345;28;20025;-36
2023/09/24 07:26:52;;;;;;;7.87;4.77;;;;;;;10.62;100.00;102484.44;5057647;28;20028;-36
2023/09/24 07:29:17;;;;;;;7.03;4.23;;;;;;;10.73;100.00;102514.53;5057204;28;20263;-36
2023/09/24 07:31:42;;;;;;;9.82;4.70;;;;;;;10.81;100.00;102511.72;5057446;28;20017;-36
2023/09/24 07:34:09;;;;;;;6.03;4.27;;;;;;;10.88;100.00;102510.94;5057177;28;20024;-36
2023/09/24 07:36:35;;;;;;;8.50;4.70;;;;;;;10.97;100.00;102526.03;5056998;28;20799;-36
2023/09/24 07:39:00;;;;;;;7.53;4.28;;;;;;;10.98;100.00;102523.16;5056863;28;20104;-36
2023/09/24 07:41:25;;;;;;;8.27;3.78;;;;;;;11.09;100.00;102525.34;5057692;28;20056;-36
2023/09/24 07:43:51;;;;;;;7.43;3.63;;;;;;;11.13;100.00;102524.97;5056983;28;20099;-36
2023/09/24 07:46:17;;;;;;;10.45;8.43;;;;;;;11.22;100.00;102531.91;5056857;28;20028;-36
2023/09/24 07:48:44;;;;;;;12.95;8.93;;;;;;;11.23;100.00;102523.59;5056815;28;20533;-36
2023/09/24 07:51:10;;;;;;;9.80;5.65;;;;;;;11.38;100.00;102528.94;5057529;28;20025;-36
2023/09/24 07:53:35;;;;;;;;;;;;;;;11.48;100.00;102532.16;5057736;28;20032;-36
2023/09/24 07:56:06;;;;;;;5.47;3.42;;;;;;;11.45;100.00;102528.97;5056643;28;19905;-36
2023/09/24 07:58:33;;;;;;;7.63;4.13;;;;;;;11.59;100.00;102537.00;5057045;28;20037;-36
2023/09/24 08:01:11;;;;;;;;;;;;;;;11.73;100.00;102537.13;5057031;28;20024;-36
2023/09/24 08:03:38;;;;;;;6.20;3.72;;;;;;;11.84;100.00;102542.84;5056460;28;19905;-36
2023/09/24 08:06:04;;;;;;;9.15;3.80;;;;;;;11.87;100.00;102538.94;5056100;28;20449;-36
2023/09/24 08:08:30;;;;;;;6.78;3.30;;;;;;;11.98;100.00;102529.41;5056725;28;20028;-36
2023/09/24 08:10:57;;;;;;;7.40;3.50;;;;;;;12.12;100.00;102531.16;5057159;28;20092;-36
2023/09/24 08:13:22;;;;;;;;;;;;;;;12.22;100.00;102525.38;5057056;28;20369;-36
2023/09/24 08:15:48;;;;;;;7.18;3.38;;;;;;;12.29;100.00;102534.34;5056213;28;19987;-36
2023/09/24 08:18:15;;;;;;;7.30;3.67;;;;;;;12.39;100.00;102532.09;5056435;28;20446;-36
2023/09/24 08:20:41;;;;;;;6.88;3.97;;;;;;;12.43;100.00;102533.38;5056625;28;20090;-36
2023/09/24 08:23:06;;;;;;;7.15;3.92;;;;;;;12.61;100.00;102536.38;5056752;28;20100;-36
2023/09/24 08:25:32;;;;;;;6.50;3.10;;;;;;;12.70;100.00;102547.06;5055801;28;20025;-36
2023/09/24 08:27:58;;;;;;;;;;;;;;;12.84;100.00;102551.50;5056768;28;20067;-36
2023/09/24 08:30:24;;;;;;;6.90;3.63;;;;;;;12.90;100.00;102545.25;5055518;28;19905;-36
2023/09/24 08:32:49;;;;;;;;;;;;;;;13.03;100.00;102544.41;5056378;28;20176;-36
2023/09/24 08:35:15;;;;;;;7.65;2.83;;;;;;;13.05;100.00;102531.50;5056180;28;19991;-36
2023/09/24 08:37:40;;;;;;;8.25;3.30;;;;;;;13.09;100.00;102528.16;5055784;28;20515;-36
2023/09/24 08:40:09;;;;;;;6.22;2.42;;;;;;;13.23;100.00;102539.91;5055487;28;20024;-36
2023/09/24 08:42:36;;;;;;;5.68;2.78;;;;;;;13.35;100.00;102549.09;5055808;28;20469;-36
2023/09/24 08:45:12;;;;;;;4.97;2.30;;;;;;;13.54;100.00;102550.16;5055742;28;20021;-36
2023/09/24 08:47:40;;;;;;;5.93;2.60;;;;;;;13.71;100.00;102555.16;5056001;28;20021;-36
2023/09/24 08:50:07;;;;;;;5.78;1.95;;;;;;;13.80;100.00;102548.47;5055594;28;20346;-36
2023/09/24 08:52:37;;;;;;;5.82;2.15;;;;;;;13.90;100.00;102552.41;5055579;28;20040;-36
2023/09/24 08:55:05;;;;;;;5.70;1.95;;;;;;;14.04;100.00;102544.22;5055580;28;20428;-36
2023/09/24 08:57:34;;;;;;;6.07;1.80;;;;;;;14.17;100.00;102542.31;5056035;28;20095;-36
2023/09/24 09:00:00;;;;;;;5.78;1.85;;;;;;;14.20;100.00;102540.22;5055950;28;20024;-36
2023/09/24 09:02:25;;;;;;;4.30;1.65;;;;;;;14.30;100.00;102546.03;5056049;28;20473;-36
2023/09/24 09:04:51;;;;;;;;;;;;;;;14.51;100.00;102551.25;5055688;28;20187;-36
2023/09/24 09:07:17;;;;;;;4.20;1.80;;;;;;;14.57;100.00;102550.38;5055643;28;20283;-36
2023/09/24 09:10:03;;;;;;;4.60;1.45;;;;;;;14.66;100.00;102540.91;5055577;28;20442;-36
2023/09/24 09:12:29;;;;;;;4.20;1.40;;;;;;;14.75;100.00;102548.84;5055704;28;20116;-36
2023/09/24 09:14:58;;;;;;;;;;;;;;;14.91;100.00;102548.31;5056158;28;20052;-36
2023/09/24 09:17:24;;;;;;;3.70;1.40;;;;;;;14.98;100.00;102542.81;5055427;28;19956;-36
2023/09/24 09:19:52;;;;;;;6.80;1.38;;;;;;;15.06;100.00;102534.41;5055007;28;20033;-36
2023/09/24 09:22:19;;;;;;;3.20;1.48;;;;;;;15.21;100.00;102529.47;5055554;28;20063;-36
2023/09/24 09:25:09;;;;;;;6.13;2.78;;;;;;;15.34;100.00;102526.63;5055342;28;20021;-36
2023/09/24 09:27:43;;;;;;;2.17;1.05;;;;;;;15.45;100.00;102511.44;5055009;28;20032;-36
2023/09/24 09:30:19;;;;;;;3.33;1.30;;;;;;;15.66;100.00;102513.81;5054445;28;20450;-36
2023/09/24 09:32:46;;;;;;;4.28;1.73;;;;;;;15.67;100.00;102509.19;5054435;28;20033;-36
2023/09/24 09:35:12;;;;;;;3.00;1.10;;;;;;;15.68;100.00;102503.50;5054473;28;20415;-36
2023/09/24 09:37:38;;;;;;;3.08;1.10;;;;;;;15.78;100.00;102500.25;5054697;28;20104;-36
2023/09/24 09:40:06;;;;;;;4.13;1.25;;;;;;;15.93;100.00;102508.91;5054889;28;20510;-36
2023/09/24 09:42:35;;;;;;;3.83;1.40;;;;;;;16.01;100.00;102505.06;5054640;28;20025;-36
2023/09/24 09:45:10;;;;;;;3.55;1.40;;;;;;;16.09;100.00;102506.63;5054532;28;20107;-36
2023/09/24 09:48:01;;;;;;;2.72;1.23;;;;;;;16.18;100.00;102503.38;5055071;28;20067;-36
2023/09/24 09:50:32;;;;;;;3.03;1.15;;;;;;;16.26;100.00;102498.69;5054827;28;20024;-36
2023/09/24 09:53:05;;;;;;;4.32;1.10;;;;;;;16.30;100.00;102489.81;5055339;28;20027;-36
2023/09/24 09:55:34;;;;;;;2.97;1.08;;;;;;;16.39;100.00;102490.31;5054143;28;20059;-36
2023/09/24 09:58:02;;;;;;;3.85;1.15;;;;;;;16.47;100.00;102487.28;5054220;28;20542;-36
2023/09/24 10:00:28;;;;;;;2.53;0.98;;;;;;;16.54;100.00;102490.75;5054820;28;20086;-36
2023/09/24 10:02:56;;;;;;;5.07;1.33;;;;;;;16.70;100.00;102478.34;5054853;28;20400;-36
2023/09/24 10:05:22;;;;;;;3.15;1.20;;;;;;;16.83;100.00;102478.16;5054159;28;20488;-36
2023/09/24 10:07:48;;;;;;;3.58;1.20;;;;;;;16.84;100.00;102465.38;5054272;28;20408;-36
2023/09/24 10:10:34;;;;;;;;;;;;;;;17.02;100.00;102465.25;5054366;28;20025;-36
2023/09/24 10:13:02;;;;;;;2.08;1.10;;;;;;;16.96;100.00;102464.31;5053282;28;19908;-36
2023/09/24 10:15:31;;;;;;;3.85;1.20;;;;;;;16.98;100.00;102455.88;5054410;28;20338;-36
2023/09/24 10:18:11;;;;;;;2.95;1.25;;;;;;;17.10;100.00;102470.41;5054572;28;20025;-36
2023/09/24 10:20:48;;;;;;;3.42;1.10;;;;;;;17.15;100.00;102451.41;5053734;28;20377;-36
2023/09/24 10:23:29;;;;;;;2.90;1.13;;;;;;;17.25;100.00;102456.28;5053583;28;20466;-36
2023/09/24 10:25:56;;;;;;;5.18;1.27;;;;;;;17.30;100.00;102463.78;5053891;28;20027;-36
2023/09/24 10:28:54;;;;;;;3.90;1.23;;;;;;;17.35;100.00;102455.69;5054459;28;20027;-36
2023/09/24 10:31:21;;;;;;;3.47;1.00;;;;;;;17.51;100.00;102460.44;5053266;28;20083;-36
2023/09/24 10:33:52;;;;;;;3.33;1.17;;;;;;;17.47;96.55;102456.50;5054148;28;20090;-36
2023/09/24 10:36:23;;;;;;;2.67;0.95;;;;;;;17.46;95.05;102460.31;5053703;28;20024;-36
2023/09/24 10:39:11;;;;;;;3.55;1.50;;;;;;;17.57;99.91;102445.81;5053682;28;20120;-37
2023/09/24 10:41:56;;;;;;;3.05;1.08;;;;;;;17.62;96.64;102440.47;5053650;28;20469;-36
2023/09/24 10:44:27;;;;;;;2.70;1.15;;;;;;;17.71;93.43;102440.91;5054434;28;20056;-36
2023/09/24 10:46:52;;;;;;;2.30;1.00;;;;;;;17.86;93.49;102446.78;5053279;28;20453;-36
2023/09/24 10:49:24;;;;;;;;;;;;;;;18.03;96.12;102435.91;5053763;28;20024;-36
2023/09/24 10:51:56;;;;;;;1.88;0.80;;;;;;;18.00;91.02;102444.56;5053334;28;19909;-36
2023/09/24 10:54:21;;;;;;;3.78;1.13;;;;;;;18.05;90.41;102444.69;5053978;28;20112;-36
2023/09/24 10:56:47;;;;;;;;;;;;;;;18.16;90.87;102441.09;5054230;28;20060;-36
2023/09/24 10:59:14;;;;;;;3.25;1.05;;;;;;;18.17;92.08;102445.50;5054300;28;20332;-36
2023/09/24 11:01:40;;;;;;;3.22;0.88;;;;;;;18.20;89.20;102438.69;5053443;28;20075;-36
2023/09/24 11:04:08;;;;;;;3.83;1.20;;;;;;;18.27;90.43;102433.91;5054037;28;20112;-36
2023/09/24 11:06:34;;;;;;;1.55;0.80;;;;;;;18.30;90.09;102438.91;5053401;28;20061;-36
2023/09/24 11:09:18;;;;;;;;;;;;;;;18.47;92.50;102433.47;5054517;28;20057;-36
2023/09/24 11:11:45;;;;;;;2.20;0.90;;;;;;;18.36;88.79;102432.44;5053129;28;19908;-36
2023/09/24 11:14:28;;;;;;;4.22;0.98;;;;;;;18.46;89.04;102440.03;5053324;28;20028;-36
2023/09/24 11:16:54;;;;;;;3.55;0.75;;;;;;;18.45;87.77;102432.91;5053658;28;20353;-36
2023/09/24 11:19:52;;;;;;;2.55;0.95;;;;;;;18.64;89.57;102439.81;5054077;28;20021;-36
2023/09/24 11:22:22;;;;;;;2.67;0.88;;;;;;;18.66;91.94;102440.41;5041456;28;20029;-36
2023/09/24 11:25:11;;;;;;;2.58;1.08;;;;;;;18.80;89.26;102448.34;5052983;28;20071;-36